Time;durP1;ratioP1;P1;durP2;ratioP2;P2;SDS_P1;SDS_P2;PMS_P1;PMS_P2;Temp;Humidity;BMP_temperature;BMP_pressure;BME280_temperature;BME280_humidity;BME280_pressure;Samples;Min_cycle;Max_cycle;Signal;HPM_P1;HPM_P2
2022/02/17 00:00:42;;;;;;;8.40;1.48;;;;;;;6.03;49.55;98289.28;5007151;28;20029;-80
2022/02/17 00:03:08;;;;;;;13.27;1.92;;;;;;;5.97;49.52;98292.28;4996930;28;20098;-81
2022/02/17 00:05:33;;;;;;;12.43;1.02;;;;;;;6.30;48.87;98296.31;4996331;28;20442;-80
2022/02/17 00:08:00;;;;;;;9.00;1.02;;;;;;;5.94;49.39;98269.13;4994468;28;20526;-81
2022/02/17 00:10:27;;;;;;;14.43;1.85;;;;;;;6.05;48.98;98287.44;4994278;28;20030;-79
2022/02/17 00:12:56;;;;;;;19.73;1.77;;;;;;;6.46;48.17;98285.78;5001253;28;20065;-81
2022/02/17 00:15:22;;;;;;;26.08;2.50;;;;;;;6.04;48.69;98285.78;4998328;28;20504;-79
2022/02/17 00:17:47;;;;;;;18.10;0.85;;;;;;;6.18;48.30;98281.50;5013871;28;20891;-82
2022/02/17 00:20:13;;;;;;;18.40;1.65;;;;;;;6.11;47.84;98293.19;4999504;28;20166;-80
2022/02/17 00:22:39;;;;;;;11.68;1.08;;;;;;;5.95;48.35;98286.38;4985776;28;20105;-77
2022/02/17 00:25:05;;;;;;;15.82;1.75;;;;;;;5.93;47.98;98262.28;4996502;28;20037;-78
2022/02/17 00:27:32;;;;;;;12.10;1.02;;;;;;;6.07;48.44;98295.97;4995237;28;20052;-76
2022/02/17 00:29:57;;;;;;;19.17;1.67;;;;;;;6.01;48.67;98280.78;4994869;28;20503;-80
2022/02/17 00:32:24;;;;;;;7.47;1.25;;;;;;;5.54;49.33;98275.94;4976067;28;20042;-80
2022/02/17 00:34:50;;;;;;;14.63;1.85;;;;;;;5.58;49.37;98275.66;4979121;28;20042;-79
2022/02/17 00:37:16;;;;;;;16.85;2.08;;;;;;;6.01;48.71;98270.41;4986844;28;20075;-81
2022/02/17 00:39:41;;;;;;;20.17;1.30;;;;;;;6.13;48.47;98283.53;5016084;28;20517;-80
2022/02/17 00:42:07;;;;;;;14.07;2.00;;;;;;;5.75;49.15;98253.03;5008092;28;20046;-80
2022/02/17 00:44:32;;;;;;;9.10;1.13;;;;;;;5.86;49.00;98281.75;4993747;28;20033;-81
2022/02/17 00:46:58;;;;;;;13.38;1.83;;;;;;;6.26;48.66;98292.19;4965725;28;20051;-80
2022/02/17 00:49:26;;;;;;;17.45;2.97;;;;;;;6.36;48.44;98311.47;4992210;28;20033;-81
2022/02/17 00:51:52;;;;;;;8.90;1.42;;;;;;;6.55;48.35;98294.72;5011900;28;20060;-80
2022/02/17 00:54:18;;;;;;;18.60;2.13;;;;;;;5.98;49.28;98273.19;4995826;28;20499;-81
2022/02/17 00:56:44;;;;;;;12.15;2.03;;;;;;;6.28;48.85;98306.78;4991577;28;20032;-80
2022/02/17 00:59:11;;;;;;;11.32;2.25;;;;;;;6.10;49.18;98320.88;5005990;28;20419;-80
2022/02/17 01:01:39;;;;;;;11.88;1.58;;;;;;;5.96;48.69;98298.38;4992932;28;20034;-76
2022/02/17 01:04:05;;;;;;;23.15;2.65;;;;;;;6.00;49.07;98304.22;5008800;28;20033;-80
2022/02/17 01:06:31;;;;;;;12.13;2.60;;;;;;;5.81;49.06;98301.91;5012639;28;20048;-78
2022/02/17 01:08:58;;;;;;;23.33;2.75;;;;;;;5.68;48.75;98307.00;4962829;28;20053;-81
2022/02/17 01:11:24;;;;;;;17.13;1.55;;;;;;;5.65;49.10;98299.44;5017405;28;20056;-79
2022/02/17 01:13:49;;;;;;;13.73;2.13;;;;;;;5.77;49.17;98303.03;4995300;28;20068;-82
2022/02/17 01:16:15;;;;;;;24.80;3.03;;;;;;;5.83;48.99;98313.03;4990382;28;20034;-80
2022/02/17 01:18:41;;;;;;;14.85;2.10;;;;;;;5.81;49.02;98314.88;5006385;28;20385;-78
2022/02/17 01:21:15;;;;;;;23.13;3.03;;;;;;;5.96;48.83;98333.84;5023058;28;20083;-80
2022/02/17 01:23:40;;;;;;;21.48;3.65;;;;;;;5.81;49.20;98330.44;4984288;28;20041;-78
2022/02/17 01:26:06;;;;;;;15.20;3.35;;;;;;;5.31;50.19;98332.53;5008218;28;20109;-77
2022/02/17 01:28:41;;;;;;;21.95;2.40;;;;;;;5.66;49.23;98309.72;4969914;28;20040;-78
2022/02/17 01:31:12;;;;;;;18.48;2.75;;;;;;;5.49;49.72;98345.34;5009009;28;20029;-78
2022/02/17 01:33:37;;;;;;;10.25;1.73;;;;;;;5.70;48.83;98310.34;4998084;28;20033;-77
2022/02/17 01:36:12;;;;;;;9.80;1.92;;;;;;;5.39;49.04;98345.88;5013599;28;20091;-80
2022/02/17 01:38:41;;;;;;;20.40;2.00;;;;;;;5.02;49.86;98362.72;4990826;28;20443;-78
2022/02/17 01:41:08;;;;;;;12.00;1.65;;;;;;;5.26;49.69;98370.84;4989814;28;20034;-79
2022/02/17 01:43:35;;;;;;;23.20;2.38;;;;;;;5.38;49.19;98348.56;5022399;28;20033;-79
2022/02/17 01:46:02;;;;;;;19.75;2.75;;;;;;;5.08;50.08;98328.72;5016298;28;20469;-80
2022/02/17 01:48:27;;;;;;;24.00;2.08;;;;;;;4.75;50.62;98359.91;5004738;28;20033;-80
2022/02/17 01:50:53;;;;;;;15.70;2.03;;;;;;;4.88;50.63;98379.03;4995208;28;20376;-80
2022/02/17 01:53:20;;;;;;;20.27;2.47;;;;;;;5.01;50.70;98379.16;5016520;28;20042;-79
2022/02/17 01:55:50;;;;;;;22.15;2.22;;;;;;;4.74;51.09;98359.03;4997466;28;20573;-81
2022/02/17 01:58:16;;;;;;;17.98;3.85;;;;;;;4.50;51.61;98348.31;4994612;28;20041;-79
2022/02/17 02:00:44;;;;;;;11.68;1.63;;;;;;;4.67;50.99;98388.78;5008125;28;20095;-79
2022/02/17 02:03:11;;;;;;;20.40;3.05;;;;;;;4.56;51.60;98370.41;4988563;28;20041;-80
2022/02/17 02:05:56;;;;;;;12.35;1.55;;;;;;;4.66;50.76;98363.84;5013130;28;20044;-80
2022/02/17 02:08:25;;;;;;;13.23;1.63;;;;;;;4.73;51.11;98367.75;4972753;28;20038;-81
2022/02/17 02:10:51;;;;;;;19.52;2.30;;;;;;;4.51;51.57;98368.09;5017732;28;20039;-79
2022/02/17 02:13:17;;;;;;;15.27;2.00;;;;;;;4.54;51.25;98364.50;4992029;28;20415;-81
2022/02/17 02:15:49;;;;;;;21.75;3.17;;;;;;;4.30;51.79;98354.59;5007686;28;20053;-81
2022/02/17 02:18:18;;;;;;;12.95;1.58;;;;;;;4.29;51.18;98368.41;4996419;28;20054;-80
2022/02/17 02:20:50;;;;;;;15.73;1.88;;;;;;;4.75;50.18;98339.19;5008745;28;20033;-80
2022/02/17 02:23:18;;;;;;;26.42;2.28;;;;;;;4.87;49.81;98368.72;4982232;28;20041;-79
2022/02/17 02:25:47;;;;;;;20.83;3.80;;;;;;;4.21;51.11;98397.28;5009254;28;20507;-79
2022/02/17 02:28:24;;;;;;;18.15;3.13;;;;;;;4.21;51.41;98399.03;5003175;28;20492;-79
2022/02/17 02:30:51;;;;;;;26.90;2.38;;;;;;;4.45;50.68;98377.94;4994729;28;20106;-78
2022/02/17 02:33:17;;;;;;;23.30;3.55;;;;;;;4.68;50.14;98384.47;5005607;28;20219;-81
2022/02/17 02:35:43;;;;;;;10.07;2.58;;;;;;;4.47;50.50;98386.44;5005395;28;20036;-79
2022/02/17 02:38:10;;;;;;;19.95;3.22;;;;;;;4.25;51.29;98386.75;4993873;28;20140;-79
2022/02/17 02:40:36;;;;;;;15.18;2.00;;;;;;;4.32;50.57;98380.34;5012228;28;20567;-79
2022/02/17 02:43:03;;;;;;;31.88;4.60;;;;;;;4.55;49.90;98379.94;5005562;28;20121;-80
2022/02/17 02:45:29;;;;;;;34.63;2.97;;;;;;;4.91;48.64;98375.44;5010569;28;20488;-78
2022/02/17 02:47:55;;;;;;;32.55;4.50;;;;;;;4.82;49.47;98400.88;4960909;28;20041;-80
2022/02/17 02:50:21;;;;;;;22.08;2.72;;;;;;;4.37;49.75;98392.13;4989992;28;20033;-78
2022/02/17 02:52:47;;;;;;;25.52;3.70;;;;;;;4.70;49.05;98380.00;5007147;28;20499;-79
2022/02/17 02:55:13;;;;;;;28.17;3.90;;;;;;;4.30;49.76;98366.69;5003067;28;20030;-77
2022/02/17 02:57:38;;;;;;;19.67;3.53;;;;;;;4.60;49.23;98392.63;4964457;28;20053;-79
2022/02/17 03:00:06;;;;;;;26.13;3.15;;;;;;;4.50;49.30;98397.47;4990696;28;20046;-78
2022/02/17 03:02:32;;;;;;;11.07;2.30;;;;;;;4.73;48.70;98372.91;4988630;28;20049;-81
2022/02/17 03:04:57;;;;;;;33.92;4.22;;;;;;;4.66;49.06;98396.63;5009830;28;20068;-78
2022/02/17 03:07:23;;;;;;;19.13;3.13;;;;;;;5.48;46.95;98400.66;5006161;28;20045;-78
2022/02/17 03:09:49;;;;;;;19.27;3.65;;;;;;;4.64;48.46;98404.47;5010330;28;20037;-79
2022/02/17 03:12:16;;;;;;;20.13;2.95;;;;;;;4.90;48.25;98394.44;5009547;28;20400;-79
2022/02/17 03:14:44;;;;;;;13.15;2.53;;;;;;;5.02;47.82;98383.41;4991685;28;20466;-80
2022/02/17 03:17:16;;;;;;;20.45;3.30;;;;;;;4.96;47.96;98388.94;4992363;28;20064;-81
2022/02/17 03:19:43;;;;;;;27.80;2.75;;;;;;;4.66;48.29;98435.44;5000130;28;20037;-81
2022/02/17 03:22:09;;;;;;;22.00;3.13;;;;;;;4.95;47.69;98397.63;5022252;28;20110;-78
2022/02/17 03:24:38;;;;;;;22.52;3.20;;;;;;;4.66;48.01;98400.06;5005908;28;20026;-80
2022/02/17 03:27:04;;;;;;;25.83;3.20;;;;;;;4.99;47.23;98405.16;4993757;28;20048;-78
2022/02/17 03:29:30;;;;;;;24.05;2.78;;;;;;;4.96;47.37;98409.66;5014430;28;20037;-81
2022/02/17 03:31:58;;;;;;;29.67;4.05;;;;;;;5.03;47.34;98404.06;4992307;28;20060;-78
2022/02/17 03:34:25;;;;;;;23.60;3.38;;;;;;;4.60;48.08;98426.25;4993875;28;20052;-79
2022/02/17 03:36:52;;;;;;;19.67;3.67;;;;;;;4.49;48.79;98431.19;5015557;28;20056;-80
2022/02/17 03:39:18;;;;;;;22.05;3.42;;;;;;;4.43;48.66;98404.72;5013253;28;20033;-80
2022/02/17 03:42:05;;;;;;;19.67;2.55;;;;;;;4.44;48.85;98421.09;5012057;28;20054;-81
2022/02/17 03:44:32;;;;;;;16.73;2.83;;;;;;;4.36;49.10;98437.03;5014024;28;20068;-81
2022/02/17 03:47:06;;;;;;;20.73;3.25;;;;;;;3.94;49.66;98434.91;5001417;28;20037;-80
2022/02/17 03:49:46;;;;;;;23.98;3.33;;;;;;;4.33;48.96;98420.81;5007017;28;20582;-78
2022/02/17 03:52:11;;;;;;;29.63;3.28;;;;;;;4.42;48.51;98444.44;5021723;28;20177;-81
2022/02/17 03:54:38;;;;;;;19.33;2.67;;;;;;;4.66;48.17;98436.28;4996165;28;20025;-79
2022/02/17 03:57:08;;;;;;;31.17;2.55;;;;;;;4.67;48.19;98439.69;5020048;28;20386;-80
2022/02/17 03:59:45;;;;;;;27.10;2.60;;;;;;;4.40;49.07;98437.69;5013994;28;20542;-80
2022/02/17 04:02:11;;;;;;;15.52;3.35;;;;;;;4.09;49.54;98448.78;4997801;28;20495;-81
2022/02/17 04:04:38;;;;;;;12.65;2.30;;;;;;;4.06;49.03;98459.31;4999004;28;20025;-79
2022/02/17 04:07:05;;;;;;;28.77;3.53;;;;;;;4.35;49.02;98450.84;4988971;28;20057;-78
2022/02/17 04:09:33;;;;;;;19.10;3.17;;;;;;;4.32;48.83;98481.19;4994765;28;20501;-80
2022/02/17 04:11:59;;;;;;;24.75;2.90;;;;;;;3.98;49.03;98460.53;5012580;28;20110;-81
2022/02/17 04:14:30;;;;;;;17.55;2.50;;;;;;;4.04;49.15;98466.28;5013631;28;20490;-80
2022/02/17 04:16:55;;;;;;;22.45;3.67;;;;;;;3.99;49.20;98469.94;5000185;28;20119;-80
2022/02/17 04:19:32;;;;;;;22.50;3.08;;;;;;;4.37;48.48;98490.41;5008598;28;20045;-80
2022/02/17 04:22:08;;;;;;;33.35;3.47;;;;;;;4.55;48.08;98511.06;5025326;28;20030;-78
2022/02/17 04:24:42;;;;;;;24.50;3.50;;;;;;;4.10;48.73;98484.09;4996406;28;20144;-80
2022/02/17 04:27:11;;;;;;;14.95;2.60;;;;;;;4.43;48.15;98500.44;5014501;28;20116;-81
2022/02/17 04:29:38;;;;;;;20.05;3.42;;;;;;;4.38;48.33;98492.06;5012679;28;20036;-78
2022/02/17 04:32:07;;;;;;;22.10;3.40;;;;;;;4.58;47.45;98505.69;5012028;28;20048;-78
2022/02/17 04:34:33;;;;;;;19.17;3.03;;;;;;;4.01;48.61;98468.13;5015279;28;20497;-79
2022/02/17 04:37:07;;;;;;;23.67;4.00;;;;;;;4.28;47.89;98500.41;5013494;28;20132;-79
2022/02/17 04:39:32;;;;;;;17.13;2.90;;;;;;;4.09;48.77;98483.22;5011115;28;20065;-78
2022/02/17 04:42:18;;;;;;;18.35;3.88;;;;;;;4.38;48.23;98533.44;4998300;28;20099;-81
2022/02/17 04:44:45;;;;;;;23.85;2.78;;;;;;;4.28;48.25;98511.56;5012623;28;20030;-80
2022/02/17 04:47:10;;;;;;;19.77;3.20;;;;;;;4.63;48.17;98552.84;5011271;28;20052;-80
2022/02/17 04:49:36;;;;;;;25.40;4.20;;;;;;;4.62;48.11;98540.84;5009316;28;20029;-79
2022/02/17 04:52:02;;;;;;;23.73;2.60;;;;;;;4.15;48.90;98542.38;4966299;28;20098;-79
2022/02/17 04:54:28;;;;;;;23.73;3.67;;;;;;;3.81;49.25;98522.56;4991324;28;20025;-81
2022/02/17 04:56:54;;;;;;;14.48;2.67;;;;;;;4.27;48.59;98564.19;4993963;28;20037;-79
2022/02/17 04:59:21;;;;;;;24.65;2.35;;;;;;;4.27;48.48;98566.78;5015503;28;20036;-81
2022/02/17 05:01:47;;;;;;;13.75;2.75;;;;;;;4.45;47.92;98582.28;4993828;28;20334;-79
2022/02/17 05:04:45;;;;;;;29.90;3.10;;;;;;;4.15;48.97;98572.56;4999443;28;20041;-79
2022/02/17 05:07:17;;;;;;;20.40;2.92;;;;;;;4.25;48.60;98584.13;5018038;28;20097;-81
2022/02/17 05:09:42;;;;;;;21.50;3.13;;;;;;;3.62;49.89;98614.78;4997691;28;20029;-80
2022/02/17 05:12:08;;;;;;;18.88;3.58;;;;;;;4.45;48.42;98593.44;4991993;28;20037;-79
2022/02/17 05:14:34;;;;;;;23.10;2.83;;;;;;;3.96;49.80;98604.53;5012824;28;20088;-78
2022/02/17 05:17:01;;;;;;;30.58;3.72;;;;;;;4.41;48.54;98602.31;4992663;28;20596;-81
2022/02/17 05:19:30;;;;;;;23.95;2.78;;;;;;;4.24;48.53;98631.59;4997004;28;20095;-79
2022/02/17 05:22:18;;;;;;;15.80;1.55;;;;;;;4.42;48.17;98656.53;5011526;28;20029;-80
2022/02/17 05:25:03;;;;;;;16.17;2.15;;;;;;;4.28;48.65;98633.13;5014925;28;20067;-80
2022/02/17 05:27:47;;;;;;;15.70;2.85;;;;;;;4.46;48.31;98633.13;5012977;28;20049;-81
2022/02/17 05:30:42;;;;;;;36.55;3.25;;;;;;;4.35;48.77;98634.47;5010252;28;20032;-79
2022/02/17 05:33:27;;;;;;;17.02;3.05;;;;;;;3.91;50.06;98678.84;5010851;28;20496;-80
2022/02/17 05:36:19;;;;;;;28.65;3.17;;;;;;;4.09;49.45;98664.19;4997248;28;20121;-77
2022/02/17 05:39:04;;;;;;;27.02;3.40;;;;;;;4.01;49.77;98690.41;5006623;28;20075;-78
2022/02/17 05:41:36;;;;;;;17.83;2.20;;;;;;;4.30;49.47;98690.78;5008780;28;20025;-81
2022/02/17 05:44:03;;;;;;;23.33;3.55;;;;;;;4.27;49.09;98709.00;4982109;28;20118;-81
2022/02/17 05:46:28;;;;;;;21.05;1.67;;;;;;;3.96;50.04;98705.31;4993582;28;20131;-80
2022/02/17 05:48:54;;;;;;;21.63;3.13;;;;;;;3.92;49.99;98680.53;4989195;28;20289;-79
2022/02/17 05:51:20;;;;;;;27.38;3.25;;;;;;;4.35;49.10;98717.25;5010913;28;20080;-81
2022/02/17 05:53:46;;;;;;;20.95;2.90;;;;;;;4.24;49.49;98740.19;5010525;28;20611;-80
2022/02/17 05:56:13;;;;;;;18.60;2.83;;;;;;;3.98;51.14;98724.19;5013147;28;20033;-79
2022/02/17 05:58:39;;;;;;;31.77;4.75;;;;;;;3.57;53.51;98751.91;5015111;28;20613;-80
2022/02/17 06:01:05;;;;;;;25.58;4.05;;;;;;;3.80;53.69;98781.88;4993577;28;20037;-79
2022/02/17 06:03:30;;;;;;;21.67;2.33;;;;;;;3.54;54.17;98765.81;4993437;28;20116;-76
2022/02/17 06:05:56;;;;;;;21.85;2.65;;;;;;;3.81;53.66;98791.31;4997702;28;20456;-79
2022/02/17 06:08:23;;;;;;;23.67;4.35;;;;;;;3.33;54.84;98800.31;4998912;28;20044;-79
2022/02/17 06:10:50;;;;;;;30.45;3.63;;;;;;;3.74;53.89;98810.59;4993301;28;20064;-79
2022/02/17 06:13:16;;;;;;;22.45;2.92;;;;;;;3.34;54.62;98804.59;4994268;28;20048;-80
2022/02/17 06:15:41;;;;;;;33.35;4.40;;;;;;;3.32;55.16;98814.13;5020854;28;20033;-83
2022/02/17 06:18:07;;;;;;;26.85;2.90;;;;;;;3.04;56.21;98799.78;4977684;28;20049;-84
2022/02/17 06:20:35;;;;;;;34.90;3.53;;;;;;;3.12;56.42;98817.53;5008138;28;20022;-82
2022/02/17 06:23:00;;;;;;;33.13;4.00;;;;;;;3.33;56.30;98819.22;4995696;28;20107;-80
2022/02/17 06:25:26;;;;;;;24.13;3.42;;;;;;;3.62;54.71;98844.69;5017540;28;20036;-79
2022/02/17 06:27:52;;;;;;;32.40;4.20;;;;;;;3.56;55.05;98859.56;5015124;28;20061;-85
2022/02/17 06:30:22;;;;;;;25.95;3.55;;;;;;;3.86;54.20;98876.38;5019949;28;20029;-81
2022/02/17 06:32:52;;;;;;;28.15;2.90;;;;;;;3.73;54.76;98881.25;5023741;28;20418;-82
2022/02/17 06:35:20;;;;;;;14.38;2.92;;;;;;;3.56;54.67;98885.41;5005071;28;20025;-83
2022/02/17 06:37:48;;;;;;;24.40;2.58;;;;;;;3.64;54.07;98876.47;5004390;28;20041;-83
2022/02/17 06:40:14;;;;;;;20.80;2.35;;;;;;;3.15;55.03;98890.50;5003486;28;20067;-83
2022/02/17 06:42:40;;;;;;;15.70;2.00;;;;;;;3.22;54.57;98877.34;5029756;28;20053;-83
2022/02/17 06:45:06;;;;;;;19.60;1.98;;;;;;;3.40;53.86;98930.84;5004818;28;20383;-83
2022/02/17 06:47:32;;;;;;;15.80;3.63;;;;;;;3.08;54.15;98925.22;5002672;28;20045;-83
2022/02/17 06:49:57;;;;;;;11.65;1.70;;;;;;;3.15;54.83;98933.56;5007321;28;20059;-84
2022/02/17 06:52:23;;;;;;;23.92;3.45;;;;;;;3.34;53.71;98937.13;5020113;28;20040;-84
2022/02/17 06:54:49;;;;;;;18.50;2.80;;;;;;;3.19;54.35;98964.34;5018826;28;20029;-84
2022/02/17 06:57:20;;;;;;;19.33;3.30;;;;;;;3.65;53.46;98976.31;5026194;28;20041;-84
2022/02/17 06:59:46;;;;;;;20.67;4.00;;;;;;;3.38;54.02;98982.56;5002799;28;20353;-84
2022/02/17 07:02:12;;;;;;;17.27;2.70;;;;;;;3.54;53.65;98980.22;5019682;28;20132;-82
2022/02/17 07:04:37;;;;;;;25.15;2.97;;;;;;;3.73;53.15;99000.94;5001574;28;20026;-84
2022/02/17 07:07:03;;;;;;;24.10;4.65;;;;;;;3.64;53.01;98997.91;5002008;28;20041;-84
2022/02/17 07:09:29;;;;;;;23.63;3.67;;;;;;;3.63;52.99;99006.53;5018371;28;20517;-83
2022/02/17 07:11:55;;;;;;;26.88;3.58;;;;;;;3.51;53.46;99003.56;5001729;28;20128;-81
2022/02/17 07:14:23;;;;;;;23.25;2.92;;;;;;;3.63;53.17;99004.81;5004267;28;20029;-84
2022/02/17 07:16:57;;;;;;;26.00;3.22;;;;;;;3.02;54.75;99058.84;5012784;28;20037;-84
2022/02/17 07:19:23;;;;;;;20.05;2.47;;;;;;;3.46;54.14;99030.50;5030969;28;20028;-85
2022/02/17 07:21:50;;;;;;;19.17;3.38;;;;;;;3.29;54.50;99041.47;5015034;28;20129;-83
2022/02/17 07:24:17;;;;;;;18.88;2.53;;;;;;;3.59;53.58;99053.19;5025271;28;20478;-85
2022/02/17 07:26:42;;;;;;;12.98;2.00;;;;;;;3.38;53.76;99072.09;5018786;28;20112;-80
2022/02/17 07:29:08;;;;;;;10.85;1.40;;;;;;;3.31;54.44;99079.25;5003927;28;20061;-80
2022/02/17 07:31:34;;;;;;;18.10;2.10;;;;;;;3.56;53.73;99081.72;5011084;28;20021;-83
2022/02/17 07:33:59;;;;;;;18.40;1.95;;;;;;;3.62;53.63;99095.31;5000553;28;20134;-79
2022/02/17 07:36:29;;;;;;;19.83;2.75;;;;;;;3.56;53.75;99117.91;5029403;28;20030;-84
2022/02/17 07:38:55;;;;;;;14.82;1.98;;;;;;;3.65;53.71;99139.09;5027473;28;20096;-83
2022/02/17 07:41:20;;;;;;;17.00;2.08;;;;;;;3.99;53.09;99123.94;5012767;28;20309;-82
2022/02/17 07:43:46;;;;;;;18.80;3.40;;;;;;;3.80;53.36;99138.50;5013345;28;20053;-79
2022/02/17 07:46:13;;;;;;;11.98;3.25;;;;;;;3.75;53.64;99159.34;5016057;28;20230;-81
2022/02/17 07:48:39;;;;;;;18.08;2.20;;;;;;;4.31;52.03;99173.47;5012191;28;20037;-75
2022/02/17 07:51:05;;;;;;;29.13;2.45;;;;;;;3.96;53.04;99152.50;5002365;28;20059;-82
2022/02/17 07:53:31;;;;;;;25.83;3.85;;;;;;;3.94;53.18;99168.94;5000188;28;20509;-79
2022/02/17 07:55:57;;;;;;;24.92;3.00;;;;;;;3.84;53.24;99168.47;5013181;28;20037;-82
2022/02/17 07:58:23;;;;;;;26.27;2.72;;;;;;;4.20;52.88;99167.91;4997583;23;20351;-72
2022/02/17 08:00:49;;;;;;;13.75;2.63;;;;;;;4.07;52.91;99190.00;4983912;28;20407;-71
2022/02/17 08:03:15;;;;;;;23.42;1.88;;;;;;;4.31;52.21;99191.59;4982548;28;20096;-71
2022/02/17 08:05:42;;;;;;;21.33;2.30;;;;;;;3.73;53.31;99212.00;4964177;28;20105;-71
2022/02/17 08:08:11;;;;;;;12.70;1.88;;;;;;;3.91;52.81;99220.78;4984688;28;20115;-73
2022/02/17 08:10:37;;;;;;;16.58;2.65;;;;;;;3.32;54.19;99222.13;4982994;28;20041;-71
2022/02/17 08:13:07;;;;;;;22.95;2.30;;;;;;;3.41;53.84;99205.47;4959391;28;20042;-71
2022/02/17 08:15:33;;;;;;;12.43;2.30;;;;;;;3.44;53.69;99237.16;4965420;28;20058;-72
2022/02/17 08:17:59;;;;;;;16.35;2.67;;;;;;;3.52;54.01;99250.66;4965865;28;20044;-71
2022/02/17 08:20:26;;;;;;;16.05;1.90;;;;;;;3.74;53.53;99247.28;4964788;28;20037;-73
2022/02/17 08:22:54;;;;;;;18.13;2.40;;;;;;;3.75;52.89;99239.47;4963974;28;20048;-71
2022/02/17 08:25:21;;;;;;;12.18;2.20;;;;;;;3.54;53.27;99263.53;4986154;28;20030;-73
2022/02/17 08:27:47;;;;;;;14.65;2.53;;;;;;;3.80;52.29;99265.13;4983167;28;20062;-71
2022/02/17 08:30:14;;;;;;;15.07;2.00;;;;;;;4.05;52.36;99264.19;4985968;28;20034;-71
2022/02/17 08:32:40;;;;;;;24.95;2.10;;;;;;;3.78;53.10;99272.09;4982357;28;20442;-73
2022/02/17 08:35:08;;;;;;;24.33;4.53;;;;;;;3.51;54.63;99287.69;4963840;28;20057;-74
2022/02/17 08:37:41;;;;;;;27.75;2.55;;;;;;;3.16;55.55;99281.19;4961085;28;20042;-72
2022/02/17 08:40:11;;;;;;;15.82;2.47;;;;;;;3.45;55.28;99295.69;4979762;28;20038;-73
2022/02/17 08:42:37;;;;;;;17.85;3.15;;;;;;;3.19;55.99;99323.22;4981739;28;20064;-72
2022/02/17 08:45:03;;;;;;;35.70;3.47;;;;;;;3.95;54.46;99331.75;4959628;28;20038;-73
2022/02/17 08:47:29;;;;;;;11.30;2.97;;;;;;;3.91;54.91;99337.09;4983541;28;20133;-73
2022/02/17 08:49:55;;;;;;;29.13;2.63;;;;;;;3.07;57.54;99335.69;4975365;28;21240;-75
2022/02/17 08:52:21;;;;;;;14.35;2.50;;;;;;;3.05;57.87;99340.94;4981166;28;20141;-71
2022/02/17 08:54:48;;;;;;;21.48;3.30;;;;;;;2.77;58.23;99359.03;4980829;28;20760;-72
2022/02/17 08:57:16;;;;;;;24.85;3.70;;;;;;;3.34;56.59;99367.53;4981922;28;20467;-73
2022/02/17 08:59:41;;;;;;;22.08;2.80;;;;;;;3.15;57.43;99368.09;4962382;28;20057;-73
2022/02/17 09:02:07;;;;;;;20.30;3.63;;;;;;;3.28;56.88;99363.38;4981699;28;20612;-71
2022/02/17 09:04:32;;;;;;;20.08;2.83;;;;;;;3.63;56.14;99387.22;4981327;28;20084;-72
2022/02/17 09:07:00;;;;;;;23.38;2.63;;;;;;;3.35;56.10;99379.56;4957632;28;20434;-72
2022/02/17 09:09:26;;;;;;;15.85;2.10;;;;;;;3.63;54.95;99388.91;4981692;28;20037;-74
2022/02/17 09:11:51;;;;;;;29.08;3.25;;;;;;;3.54;55.17;99396.13;4978220;28;20092;-73
2022/02/17 09:14:17;;;;;;;19.83;2.38;;;;;;;3.32;55.34;99384.84;4981096;28;20030;-72
2022/02/17 09:16:43;;;;;;;17.02;3.45;;;;;;;3.25;55.46;99396.19;4978297;28;20064;-72
2022/02/17 09:19:08;;;;;;;13.75;2.10;;;;;;;2.99;56.31;99405.66;4960084;28;20061;-72
2022/02/17 09:21:35;;;;;;;13.48;1.70;;;;;;;3.05;55.76;99426.13;4977663;28;20022;-72
2022/02/17 09:24:00;;;;;;;11.00;1.77;;;;;;;3.29;54.72;99433.97;4976539;28;20038;-73
2022/02/17 09:26:29;;;;;;;19.58;1.58;;;;;;;3.02;55.71;99446.84;4979763;28;20042;-73
2022/02/17 09:28:56;;;;;;;12.77;2.00;;;;;;;3.40;54.26;99457.72;4956253;28;20376;-72
2022/02/17 09:31:23;;;;;;;11.30;0.70;;;;;;;3.22;54.41;99450.53;4960367;28;20122;-72
2022/02/17 09:33:50;;;;;;;14.10;1.55;;;;;;;2.87;54.83;99465.41;4980130;28;20089;-74
2022/02/17 09:36:17;;;;;;;7.53;0.50;;;;;;;3.24;54.69;99472.00;4980598;28;20041;-73
2022/02/17 09:38:43;;;;;;;8.15;0.57;;;;;;;3.64;53.07;99461.22;4979471;28;20057;-72
2022/02/17 09:41:11;;;;;;;10.80;1.25;;;;;;;3.87;52.53;99465.59;4982610;28;20240;-72
2022/02/17 09:43:39;;;;;;;14.45;1.90;;;;;;;3.76;52.41;99475.47;4978329;28;20669;-72
2022/02/17 09:46:04;;;;;;;9.98;1.42;;;;;;;4.28;51.82;99489.16;4981880;28;20045;-72
2022/02/17 09:48:31;;;;;;;12.70;1.60;;;;;;;4.27;51.77;99487.47;4979872;28;20034;-67
2022/02/17 09:50:57;;;;;;;10.73;1.67;;;;;;;3.77;52.04;99497.84;4960390;28;20337;-66
2022/02/17 09:53:23;;;;;;;17.67;2.45;;;;;;;4.02;51.42;99496.09;4958346;28;20744;-66
2022/02/17 09:55:49;;;;;;;13.32;1.48;;;;;;;4.17;51.30;99511.97;4979772;28;20370;-66
2022/02/17 09:58:15;;;;;;;23.08;2.65;;;;;;;4.05;51.33;99517.56;4979318;28;20042;-66
2022/02/17 10:00:42;;;;;;;11.38;1.08;;;;;;;4.27;51.15;99508.16;4982034;28;20117;-66
2022/02/17 10:03:21;;;;;;;16.98;3.35;;;;;;;3.93;51.56;99514.50;4980574;28;20410;-66
2022/02/17 10:06:09;;;;;;;26.77;3.00;;;;;;;3.88;51.84;99531.09;4979358;28;20038;-66
2022/02/17 10:08:36;;;;;;;20.67;3.45;;;;;;;4.59;50.00;99552.75;4978986;28;20033;-66
2022/02/17 10:11:07;;;;;;;19.15;3.50;;;;;;;4.47;49.89;99542.81;5020428;23;20424;-79
2022/02/17 10:13:35;;;;;;;21.70;2.70;;;;;;;4.14;50.02;99548.28;4998427;28;20041;-79
2022/02/17 10:16:01;;;;;;;17.27;1.70;;;;;;;4.19;50.05;99546.41;4975776;28;20136;-81
2022/02/17 10:18:30;;;;;;;22.52;3.45;;;;;;;4.41;49.60;99556.84;4991999;28;20042;-79
2022/02/17 10:21:12;;;;;;;14.18;1.90;;;;;;;3.97;49.62;99572.97;4988457;28;20057;-80
2022/02/17 10:23:47;;;;;;;22.17;3.45;;;;;;;4.79;47.77;99567.56;4969830;28;20054;-79
2022/02/17 10:26:17;;;;;;;14.63;1.52;;;;;;;4.96;47.05;99569.53;4978938;28;20030;-81
2022/02/17 10:28:51;;;;;;;10.68;2.03;;;;;;;4.57;46.84;99577.84;4973907;28;20046;-81
2022/02/17 10:31:30;;;;;;;15.60;1.75;;;;;;;4.43;47.55;99581.75;4975422;28;20567;-79
2022/02/17 10:33:58;;;;;;;15.38;2.63;;;;;;;3.63;49.66;99598.22;4958091;28;20035;-79
2022/02/17 10:36:40;;;;;;;18.48;1.70;;;;;;;4.25;47.44;99597.88;4987123;28;20500;-81
2022/02/17 10:39:19;;;;;;;17.83;1.67;;;;;;;4.52;47.31;99618.53;4959915;28;20390;-80
2022/02/17 10:41:44;;;;;;;20.05;1.90;;;;;;;4.86;46.35;99612.19;4970311;28;20038;-78
2022/02/17 10:44:10;;;;;;;12.30;2.20;;;;;;;4.31;47.45;99618.38;4965441;28;20034;-79
2022/02/17 10:46:38;;;;;;;24.35;2.28;;;;;;;4.13;47.97;99609.50;4993492;28;20069;-79
2022/02/17 10:49:19;;;;;;;16.13;1.27;;;;;;;4.35;47.81;99625.16;4959323;28;20041;-79
2022/02/17 10:51:46;;;;;;;24.50;2.33;;;;;;;4.67;47.08;99632.69;4984537;28;20109;-80
2022/02/17 10:54:11;;;;;;;16.10;2.75;;;;;;;4.61;47.41;99631.19;4996319;28;20014;-80
2022/02/17 10:56:40;;;;;;;17.08;3.60;;;;;;;4.74;47.58;99636.75;4970927;28;20339;-83
2022/02/17 11:01:57;;;;;;;19.10;2.38;;;;;;;5.28;47.60;99651.22;4975591;28;20037;-78
2022/02/17 11:04:26;;;;;;;25.92;1.90;;;;;;;5.13;46.96;99655.22;4969711;28;20385;-82
2022/02/17 11:06:52;;;;;;;16.15;2.63;;;;;;;4.98;47.69;99661.78;4970411;28;20030;-82
2022/02/17 11:09:18;;;;;;;12.43;2.17;;;;;;;5.42;46.06;99650.69;4962629;28;20503;-81
2022/02/17 11:11:50;;;;;;;19.00;2.78;;;;;;;5.52;46.32;99661.53;4988561;28;20037;-80
2022/02/17 11:14:16;;;;;;;17.40;2.35;;;;;;;5.42;45.91;99650.69;4967605;28;20042;-83
2022/02/17 11:16:42;;;;;;;19.33;1.92;;;;;;;5.03;46.54;99661.63;4971694;28;20038;-80
2022/02/17 11:19:08;;;;;;;18.35;2.70;;;;;;;5.23;46.34;99677.31;4988596;28;20366;-81
2022/02/17 11:21:33;;;;;;;27.52;2.47;;;;;;;4.89;46.82;99687.19;4980191;28;20311;-82
2022/02/17 11:24:01;;;;;;;18.77;1.77;;;;;;;4.81;46.71;99690.84;4981762;28;20057;-81
2022/02/17 11:26:31;;;;;;;13.23;1.75;;;;;;;4.82;47.15;99702.06;4980912;28;20033;-79
2022/02/17 11:29:29;;;;;;;23.05;4.07;;;;;;;5.11;46.72;99701.03;4962834;28;20045;-80
2022/02/17 11:31:58;;;;;;;22.75;2.55;;;;;;;5.30;46.50;99706.41;4940707;28;20160;-82
2022/02/17 11:34:38;;;;;;;26.10;2.90;;;;;;;4.90;46.97;99688.84;4990130;28;20543;-81
2022/02/17 11:37:22;;;;;;;21.45;2.50;;;;;;;4.95;47.37;99718.03;4958035;28;20468;-79
2022/02/17 11:40:08;;;;;;;27.70;3.28;;;;;;;4.86;48.06;99702.81;4997404;28;20042;-82
2022/02/17 11:42:45;;;;;;;17.67;2.47;;;;;;;4.67;48.96;99725.88;4979465;28;20029;-82